createdAt,value
2023-02-15T00:01:36.855Z,28.55
2023-02-15T00:04:04.796Z,28.05
2023-02-15T00:06:31.770Z,27.42
2023-02-15T00:08:58.811Z,24.83
2023-02-15T00:11:40.775Z,27.13
2023-02-15T00:14:09.250Z,26.25
2023-02-15T00:16:36.586Z,25.98
2023-02-15T00:19:04.014Z,27.27
2023-02-15T00:21:32.510Z,27.65
2023-02-15T00:24:01.200Z,26.20
2023-02-15T00:26:28.815Z,26.52
2023-02-15T00:28:56.722Z,25.55
2023-02-15T00:31:23.534Z,27.45
2023-02-15T00:33:50.195Z,27.70
2023-02-15T00:36:16.822Z,27.48
2023-02-15T00:38:43.455Z,27.13
2023-02-15T00:41:10.967Z,26.70
2023-02-15T00:43:37.964Z,25.73
2023-02-15T00:46:06.240Z,26.20
2023-02-15T00:48:33.437Z,26.95
2023-02-15T00:51:00.964Z,25.52
2023-02-15T00:53:29.749Z,26.05
2023-02-15T00:55:56.876Z,26.45
2023-02-15T00:58:23.688Z,26.30
2023-02-15T01:00:50.625Z,27.13
2023-02-15T01:03:19.043Z,25.58
2023-02-15T01:05:45.820Z,27.40
2023-02-15T01:08:12.428Z,26.52
2023-02-15T01:10:39.326Z,26.67
2023-02-15T01:13:06.228Z,25.95
2023-02-15T01:15:35.823Z,26.10
2023-02-15T01:18:03.103Z,27.17
2023-02-15T01:20:30.592Z,27.30
2023-02-15T01:22:58.303Z,26.30
2023-02-15T01:25:25.531Z,26.27
2023-02-15T01:27:52.288Z,24.92
2023-02-15T01:30:19.188Z,25.67
2023-02-15T01:32:45.758Z,26.70
2023-02-15T01:35:12.517Z,26.75
2023-02-15T01:37:39.407Z,25.92
2023-02-15T01:40:13.260Z,26.05
2023-02-15T01:42:40.247Z,25.60
2023-02-15T01:45:25.787Z,25.40
2023-02-15T01:48:06.190Z,25.70
2023-02-15T01:50:42.010Z,25.98
2023-02-15T01:53:28.190Z,25.00
2023-02-15T01:56:06.127Z,25.00
2023-02-15T01:58:34.740Z,24.05
2023-02-15T02:01:02.406Z,26.02
2023-02-15T02:03:50.259Z,25.55
2023-02-15T02:06:16.850Z,24.88
2023-02-15T02:08:44.182Z,26.08
2023-02-15T02:11:15.491Z,25.77
2023-02-15T02:13:43.631Z,25.00
2023-02-15T02:16:32.615Z,23.17
2023-02-15T02:18:59.306Z,25.42
2023-02-15T02:21:46.032Z,25.98
2023-02-15T02:24:40.151Z,24.55
2023-02-15T02:27:18.515Z,24.90
2023-02-15T02:30:20.110Z,25.13
2023-02-15T02:33:14.737Z,23.17
2023-02-15T02:35:57.843Z,24.58
2023-02-15T02:38:57.569Z,22.95
2023-02-15T02:41:24.087Z,23.10
2023-02-15T02:44:08.622Z,24.38
2023-02-15T02:46:54.556Z,23.45
2023-02-15T02:49:36.555Z,23.48
2023-02-15T02:52:42.759Z,22.98
2023-02-15T02:55:24.297Z,21.92
2023-02-15T02:58:20.045Z,22.23
2023-02-15T03:01:19.076Z,23.67
2023-02-15T03:03:51.342Z,22.88
2023-02-15T03:06:29.912Z,22.60
2023-02-15T03:09:04.242Z,23.20
2023-02-15T03:11:31.191Z,22.35
2023-02-15T03:13:58.533Z,21.63
2023-02-15T03:16:28.594Z,22.27
2023-02-15T03:18:58.532Z,22.50
2023-02-15T03:21:59.011Z,22.30
2023-02-15T03:24:44.413Z,22.00
2023-02-15T03:27:26.168Z,20.90
2023-02-15T03:29:59.768Z,22.33
2023-02-15T03:32:28.926Z,21.80
2023-02-15T03:34:56.070Z,21.27
2023-02-15T03:37:31.616Z,21.90
2023-02-15T03:40:25.990Z,21.55
2023-02-15T03:43:12.037Z,20.05
2023-02-15T03:45:55.428Z,20.40
2023-02-15T03:48:33.306Z,21.60
2023-02-15T03:51:25.040Z,21.13
2023-02-15T03:53:53.581Z,19.77
2023-02-15T03:56:20.151Z,20.70
2023-02-15T03:59:05.325Z,21.25
2023-02-15T04:01:58.141Z,20.70
2023-02-15T04:04:33.875Z,20.73
2023-02-15T04:07:01.607Z,20.30
2023-02-15T04:09:46.885Z,21.52
2023-02-15T04:12:13.782Z,19.27
2023-02-15T04:14:58.965Z,20.98
2023-02-15T04:17:25.673Z,20.17
2023-02-15T04:20:11.031Z,21.27
2023-02-15T04:22:56.255Z,20.70
2023-02-15T04:25:22.939Z,21.23
2023-02-15T04:27:52.753Z,20.85
2023-02-15T04:30:23.131Z,20.52
2023-02-15T04:32:49.929Z,21.27
2023-02-15T04:35:16.988Z,21.40
2023-02-15T04:37:43.849Z,22.02
2023-02-15T04:40:13.519Z,22.17
2023-02-15T04:42:40.087Z,20.23
2023-02-15T04:45:07.344Z,20.42
2023-02-15T04:47:34.404Z,21.27
2023-02-15T04:50:00.939Z,21.63
2023-02-15T04:52:27.747Z,21.75
2023-02-15T04:54:54.329Z,21.67
2023-02-15T04:57:20.848Z,21.65
2023-02-15T04:59:47.420Z,21.17
2023-02-15T05:02:14.211Z,22.38
2023-02-15T05:04:40.985Z,21.50
2023-02-15T05:07:07.734Z,22.30
2023-02-15T05:09:34.331Z,22.63
2023-02-15T05:12:01.078Z,20.83
2023-02-15T05:14:27.762Z,21.67
2023-02-15T05:16:55.176Z,22.25
2023-02-15T05:19:21.966Z,21.98
2023-02-15T05:21:48.520Z,21.95
2023-02-15T05:24:33.875Z,21.92
2023-02-15T05:27:18.752Z,21.42
2023-02-15T05:29:45.367Z,22.85
2023-02-15T05:32:15.185Z,22.52
2023-02-15T05:34:41.999Z,23.65
2023-02-15T05:37:09.373Z,22.10
2023-02-15T05:39:36.072Z,22.75
2023-02-15T05:42:02.755Z,20.52
2023-02-15T05:44:29.333Z,22.25
2023-02-15T05:46:55.930Z,21.48
2023-02-15T05:49:22.654Z,22.58
2023-02-15T05:51:50.063Z,21.98
2023-02-15T05:54:16.706Z,20.65
2023-02-15T05:56:43.296Z,21.90
2023-02-15T05:59:10.041Z,20.92
2023-02-15T06:01:36.788Z,21.13
2023-02-15T06:04:03.599Z,21.60
2023-02-15T06:06:30.201Z,22.20
2023-02-15T06:08:56.762Z,23.33
2023-02-15T06:11:23.637Z,22.60
2023-02-15T06:13:50.231Z,23.55
2023-02-15T06:16:17.386Z,21.17
2023-02-15T06:18:44.385Z,21.73
2023-02-15T06:21:11.049Z,21.55
2023-02-15T06:23:37.655Z,19.90
2023-02-15T06:26:04.642Z,21.35
2023-02-15T06:28:31.400Z,19.50
2023-02-15T06:30:58.149Z,22.45
2023-02-15T06:33:24.933Z,20.05
2023-02-15T06:35:51.549Z,21.17
2023-02-15T06:38:18.664Z,20.45
2023-02-15T06:40:45.214Z,21.42
2023-02-15T06:43:11.766Z,20.00
2023-02-15T06:45:38.315Z,20.80
2023-02-15T06:48:07.906Z,18.70
2023-02-15T06:50:35.021Z,18.65
2023-02-15T06:53:01.580Z,17.90
2023-02-15T06:55:28.159Z,18.50
2023-02-15T06:57:54.908Z,18.92
2023-02-15T07:00:23.244Z,17.77
2023-02-15T07:02:58.859Z,17.65
2023-02-15T07:05:32.252Z,22.63
2023-02-15T07:08:00.033Z,18.55
2023-02-15T07:10:27.626Z,18.10
2023-02-15T07:12:54.787Z,19.88
2023-02-15T07:15:22.673Z,18.60
2023-02-15T07:17:50.299Z,18.45
2023-02-15T07:20:22.657Z,16.92
2023-02-15T07:22:49.666Z,17.48
2023-02-15T07:25:16.422Z,17.42
2023-02-15T07:27:43.098Z,17.70
2023-02-15T07:30:13.176Z,17.00
2023-02-15T07:32:59.853Z,17.45
2023-02-15T07:35:26.682Z,18.08
2023-02-15T07:37:54.457Z,18.33
2023-02-15T07:40:23.441Z,16.92
2023-02-15T07:42:52.220Z,17.35
2023-02-15T07:45:20.112Z,15.80
2023-02-15T07:47:46.696Z,17.30
2023-02-15T07:50:13.490Z,16.05
2023-02-15T07:52:40.094Z,18.15
2023-02-15T07:55:07.052Z,16.25
2023-02-15T07:57:33.590Z,16.48
2023-02-15T08:00:00.201Z,15.57
2023-02-15T08:02:26.871Z,16.73
2023-02-15T08:04:53.587Z,13.55
2023-02-15T08:07:20.211Z,14.63
2023-02-15T08:09:46.823Z,14.95
2023-02-15T08:12:13.457Z,16.10
2023-02-15T08:14:40.032Z,13.82
2023-02-15T08:17:06.625Z,15.05
2023-02-15T08:19:34.168Z,14.35
2023-02-15T08:22:05.059Z,15.52
2023-02-15T08:24:34.192Z,15.25
2023-02-15T08:27:06.084Z,14.35
2023-02-15T08:29:34.226Z,15.40
2023-02-15T08:32:07.401Z,16.55
2023-02-15T08:34:38.719Z,15.57
2023-02-15T08:37:07.095Z,16.23
2023-02-15T08:39:33.950Z,15.38
2023-02-15T08:42:00.513Z,16.80
2023-02-15T08:44:27.131Z,23.88
2023-02-15T08:46:53.727Z,14.02
2023-02-15T08:49:22.366Z,16.80
2023-02-15T08:51:50.264Z,16.63
2023-02-15T08:54:19.640Z,14.80
2023-02-15T08:56:47.421Z,14.05
2023-02-15T08:59:19.814Z,12.65
2023-02-15T09:01:49.961Z,12.68
2023-02-15T09:04:17.183Z,12.77
2023-02-15T09:06:47.602Z,13.48
2023-02-15T09:09:15.731Z,15.65
2023-02-15T09:11:44.898Z,14.30
2023-02-15T09:14:15.484Z,13.75
2023-02-15T09:16:47.331Z,14.50
2023-02-15T09:19:14.354Z,12.70
2023-02-15T09:21:41.352Z,12.13
2023-02-15T09:24:12.127Z,12.70
2023-02-15T09:26:43.353Z,13.90
2023-02-15T09:29:11.712Z,11.95
2023-02-15T09:31:42.506Z,15.18
2023-02-15T09:34:09.252Z,14.68
2023-02-15T09:36:38.322Z,14.90
2023-02-15T09:39:11.208Z,13.38
2023-02-15T09:41:53.441Z,14.23
2023-02-15T09:44:48.080Z,14.88
2023-02-15T09:47:36.526Z,15.10
2023-02-15T09:50:31.373Z,15.85
2023-02-15T09:53:06.567Z,14.75
2023-02-15T09:55:57.356Z,18.45
2023-02-15T09:58:45.546Z,14.73
2023-02-15T10:01:36.223Z,17.35
2023-02-15T10:04:26.222Z,13.85
2023-02-15T10:07:08.127Z,19.85
2023-02-15T10:09:53.158Z,15.02
2023-02-15T10:12:56.703Z,15.30
2023-02-15T10:16:06.755Z,13.57
2023-02-15T10:18:45.289Z,16.10
2023-02-15T10:21:44.328Z,14.88
2023-02-15T10:24:16.843Z,15.70
2023-02-15T10:26:48.909Z,17.50
2023-02-15T10:29:24.776Z,15.88
2023-02-15T10:31:58.278Z,15.50
2023-02-15T10:34:49.010Z,16.45
2023-02-15T10:37:48.880Z,14.30
2023-02-15T10:40:33.552Z,14.90
2023-02-15T10:43:15.423Z,16.85
2023-02-15T10:45:57.888Z,15.10
2023-02-15T10:48:52.548Z,15.30
2023-02-15T10:51:37.512Z,15.13
2023-02-15T10:54:27.321Z,14.93
2023-02-15T10:57:05.935Z,16.23
2023-02-15T10:59:50.612Z,16.80
2023-02-15T11:02:55.031Z,16.88
2023-02-15T11:05:35.579Z,17.88
2023-02-15T11:08:07.131Z,16.90
2023-02-15T11:10:53.553Z,16.98
2023-02-15T11:13:23.432Z,18.08
2023-02-15T11:15:58.936Z,17.00
2023-02-15T11:18:31.480Z,16.50
2023-02-15T11:21:50.975Z,16.13
2023-02-15T11:24:21.113Z,16.70
2023-02-15T11:27:13.760Z,19.05
2023-02-15T11:29:54.170Z,17.58
2023-02-15T11:32:24.957Z,17.98
2023-02-15T11:35:01.200Z,17.67
2023-02-15T11:38:20.462Z,18.33
2023-02-15T11:40:59.923Z,15.90
2023-02-15T11:43:40.909Z,15.80
2023-02-15T11:46:12.192Z,17.70
2023-02-15T11:48:39.693Z,17.80
2023-02-15T11:51:06.518Z,17.30
2023-02-15T11:53:37.176Z,15.68
2023-02-15T11:56:05.274Z,17.00
2023-02-15T11:58:41.554Z,16.70
2023-02-15T12:01:24.614Z,15.63
2023-02-15T12:03:54.026Z,16.85
2023-02-15T12:06:30.018Z,15.82
2023-02-15T12:09:28.822Z,15.55
2023-02-15T12:12:15.351Z,15.23
2023-02-15T12:15:08.594Z,17.90
2023-02-15T12:17:37.782Z,15.27
2023-02-15T12:20:21.582Z,16.02
2023-02-15T12:23:15.822Z,17.15
2023-02-15T12:25:55.427Z,16.08
2023-02-15T12:28:41.013Z,16.73
2023-02-15T12:31:22.239Z,17.70
2023-02-15T12:33:51.906Z,16.25
2023-02-15T12:36:21.333Z,16.58
2023-02-15T12:39:20.536Z,17.75
2023-02-15T12:41:57.933Z,16.98
2023-02-15T12:44:30.270Z,16.58
2023-02-15T12:47:18.234Z,17.42
2023-02-15T12:49:48.100Z,16.05
2023-02-15T12:52:23.929Z,16.73
2023-02-15T12:54:51.466Z,16.95
2023-02-15T12:57:28.610Z,16.45
2023-02-15T12:59:59.614Z,18.35
2023-02-15T13:02:29.597Z,16.00
2023-02-15T13:04:58.522Z,14.35
2023-02-15T13:07:30.654Z,16.00
2023-02-15T13:09:57.390Z,17.15
2023-02-15T13:12:33.205Z,17.23
2023-02-15T13:15:00.240Z,18.27
2023-02-15T13:17:31.035Z,16.23
2023-02-15T13:20:17.502Z,17.65
2023-02-15T13:22:47.747Z,15.18
2023-02-15T13:25:20.620Z,15.48
2023-02-15T13:27:51.278Z,18.02
2023-02-15T13:30:28.360Z,17.00
2023-02-15T13:33:03.072Z,16.75
2023-02-15T13:35:44.574Z,16.63
2023-02-15T13:38:23.139Z,13.38
2023-02-15T13:40:59.849Z,16.85
2023-02-15T13:43:58.913Z,14.65
2023-02-15T13:46:59.052Z,14.80
2023-02-15T13:49:25.604Z,15.57
2023-02-15T13:52:13.636Z,16.98
2023-02-15T13:55:01.851Z,16.73
2023-02-15T13:57:51.722Z,17.42
2023-02-15T14:00:34.365Z,13.23
2023-02-15T14:03:13.528Z,16.63
2023-02-15T14:05:55.272Z,20.33
2023-02-15T14:08:24.997Z,18.95
2023-02-15T14:11:07.291Z,17.20
2023-02-15T14:13:42.602Z,16.88
2023-02-15T14:16:33.839Z,17.25
2023-02-15T14:19:17.585Z,16.35
2023-02-15T14:22:00.923Z,15.55
2023-02-15T14:24:44.659Z,16.50
2023-02-15T14:27:17.888Z,17.17
2023-02-15T14:29:54.255Z,16.45
2023-02-15T14:32:42.095Z,17.55
2023-02-15T14:35:25.199Z,17.20
2023-02-15T14:38:05.598Z,18.90
2023-02-15T14:41:04.120Z,20.35
2023-02-15T14:44:11.216Z,19.83
2023-02-15T14:46:37.747Z,13.38
2023-02-15T14:49:04.260Z,16.45
2023-02-15T14:51:46.882Z,17.45
2023-02-15T14:54:22.617Z,18.10
2023-02-15T14:57:01.427Z,19.95
2023-02-15T14:59:58.507Z,17.17
2023-02-15T15:02:40.078Z,18.35
2023-02-15T15:05:32.080Z,17.58
2023-02-15T15:08:00.661Z,17.35
2023-02-15T15:10:27.393Z,15.90
2023-02-15T15:12:58.293Z,19.02
2023-02-15T15:15:27.880Z,19.10
2023-02-15T15:18:01.901Z,20.85
2023-02-15T15:20:51.735Z,19.75
2023-02-15T15:23:22.020Z,20.05
2023-02-15T15:25:52.938Z,20.33
2023-02-15T15:28:34.974Z,20.13
2023-02-15T15:31:10.246Z,20.45
2023-02-15T15:33:47.257Z,19.52
2023-02-15T15:36:54.312Z,20.08
2023-02-15T15:39:53.136Z,19.58
2023-02-15T15:42:22.703Z,19.75
2023-02-15T15:45:09.450Z,20.13
2023-02-15T15:48:07.261Z,20.42
2023-02-15T15:50:35.082Z,20.17
2023-02-15T15:53:04.030Z,20.58
2023-02-15T15:55:33.091Z,22.23
2023-02-15T15:58:06.657Z,21.40
2023-02-15T16:00:36.309Z,20.83
2023-02-15T16:03:03.686Z,22.75
2023-02-15T16:05:39.114Z,22.08
2023-02-15T16:08:06.110Z,23.80
2023-02-15T16:10:34.991Z,24.63
2023-02-15T16:13:03.142Z,22.80
2023-02-15T16:15:45.411Z,22.23
2023-02-15T16:18:18.047Z,23.25
2023-02-15T16:21:03.056Z,23.73
2023-02-15T16:23:44.783Z,26.88
2023-02-15T16:26:33.107Z,44.22
2023-02-15T16:29:00.504Z,77.95
2023-02-15T16:31:27.190Z,43.53
2023-02-15T16:33:56.144Z,29.75
2023-02-15T16:36:28.273Z,28.63
2023-02-15T16:38:57.861Z,25.85
2023-02-15T16:41:29.957Z,27.13
2023-02-15T16:44:17.712Z,25.65
2023-02-15T16:46:49.723Z,26.23
2023-02-15T16:49:24.170Z,26.70
2023-02-15T16:52:02.333Z,24.98
2023-02-15T16:54:31.173Z,25.02
2023-02-15T16:56:58.945Z,26.08
2023-02-15T16:59:52.985Z,25.38
2023-02-15T17:02:46.083Z,25.67
2023-02-15T17:05:12.095Z,26.27
2023-02-15T17:07:49.293Z,27.17
2023-02-15T17:10:37.527Z,26.38
2023-02-15T17:13:12.130Z,28.52
2023-02-15T17:15:42.311Z,27.33
2023-02-15T17:18:24.428Z,31.10
2023-02-15T17:20:54.977Z,35.28
2023-02-15T17:23:29.937Z,28.92
2023-02-15T17:25:57.484Z,30.55
2023-02-15T17:28:26.972Z,32.13
2023-02-15T17:30:55.603Z,33.53
2023-02-15T17:33:34.774Z,33.38
2023-02-15T17:36:08.039Z,34.35
2023-02-15T17:38:34.947Z,33.97
2023-02-15T17:41:03.131Z,34.20
2023-02-15T17:43:29.969Z,34.00
2023-02-15T17:45:58.557Z,33.33
2023-02-15T17:48:35.402Z,34.60
2023-02-15T17:51:04.490Z,35.30
2023-02-15T17:53:31.928Z,33.65
2023-02-15T17:55:58.644Z,33.13
2023-02-15T17:58:25.433Z,32.33
2023-02-15T18:01:14.499Z,29.88
2023-02-15T18:03:59.499Z,28.45
2023-02-15T18:06:44.555Z,29.10
2023-02-15T18:09:31.293Z,28.13
2023-02-15T18:11:58.424Z,25.05
2023-02-15T18:14:25.364Z,26.08
2023-02-15T18:16:53.001Z,25.52
2023-02-15T18:19:25.652Z,26.88
2023-02-15T18:21:55.754Z,25.27
2023-02-15T18:24:24.744Z,27.08
2023-02-15T18:26:53.801Z,24.85
2023-02-15T18:29:20.831Z,26.75
2023-02-15T18:31:53.989Z,25.13
2023-02-15T18:34:25.877Z,24.50
2023-02-15T18:36:52.584Z,24.63
2023-02-15T18:39:27.169Z,25.88
2023-02-15T18:41:54.367Z,25.60
2023-02-15T18:44:21.024Z,25.00
2023-02-15T18:46:47.698Z,24.20
2023-02-15T18:49:14.377Z,23.85
2023-02-15T18:51:41.315Z,22.80
2023-02-15T18:54:20.164Z,23.98
2023-02-15T18:56:53.713Z,23.63
2023-02-15T18:59:21.405Z,24.80
2023-02-15T19:01:48.132Z,24.40
2023-02-15T19:04:14.849Z,25.65
2023-02-15T19:06:46.003Z,25.13
2023-02-15T19:09:20.153Z,26.25
2023-02-15T19:11:52.392Z,24.52
2023-02-15T19:14:31.559Z,23.40
2023-02-15T19:17:00.034Z,19.23
2023-02-15T19:19:28.169Z,20.95
2023-02-15T19:21:55.633Z,20.95
2023-02-15T19:24:25.898Z,20.42
2023-02-15T19:26:53.197Z,20.48
2023-02-15T19:29:26.742Z,21.25
2023-02-15T19:31:53.541Z,20.58
2023-02-15T19:34:20.643Z,20.95
2023-02-15T19:36:50.363Z,22.13
2023-02-15T19:39:30.623Z,22.75
2023-02-15T19:41:57.311Z,22.80
2023-02-15T19:44:24.026Z,23.15
2023-02-15T19:46:50.719Z,24.63
2023-02-15T19:49:17.362Z,24.55
2023-02-15T19:51:44.303Z,26.50
2023-02-15T19:54:30.942Z,24.13
2023-02-15T19:56:57.923Z,24.65
2023-02-15T19:59:30.548Z,28.60
2023-02-15T20:01:58.061Z,28.40
2023-02-15T20:04:26.265Z,30.85
2023-02-15T20:06:55.910Z,31.02
2023-02-15T20:09:26.236Z,31.50
2023-02-15T20:11:53.835Z,32.78
2023-02-15T20:14:21.864Z,31.17
2023-02-15T20:16:48.746Z,31.48
2023-02-15T20:19:15.489Z,28.15
2023-02-15T20:21:44.835Z,29.63
2023-02-15T20:24:16.657Z,28.33
2023-02-15T20:26:44.015Z,30.40
2023-02-15T20:29:18.925Z,30.35
2023-02-15T20:31:46.154Z,31.42
2023-02-15T20:34:13.032Z,31.85
2023-02-15T20:36:40.595Z,34.42
2023-02-15T20:39:20.531Z,33.05
2023-02-15T20:41:48.397Z,35.78
2023-02-15T20:44:19.874Z,35.47
2023-02-15T20:46:47.366Z,35.90
2023-02-15T20:49:14.113Z,30.98
2023-02-15T20:51:41.748Z,23.92
2023-02-15T20:54:19.739Z,21.55
2023-02-15T20:56:48.128Z,20.38
2023-02-15T20:59:32.535Z,22.33
2023-02-15T21:02:23.938Z,23.33
2023-02-15T21:04:50.626Z,22.83
2023-02-15T21:07:20.016Z,23.05
2023-02-15T21:09:46.873Z,23.75
2023-02-15T21:12:19.053Z,26.25
2023-02-15T21:14:46.351Z,27.33
2023-02-15T21:17:15.151Z,30.00
2023-02-15T21:19:42.044Z,32.22
2023-02-15T21:22:14.502Z,34.03
2023-02-15T21:24:50.215Z,31.77
2023-02-15T21:27:17.378Z,30.02
2023-02-15T21:29:43.919Z,29.85
2023-02-15T21:32:10.832Z,28.00
2023-02-15T21:34:37.596Z,27.65
2023-02-15T21:37:05.115Z,28.17
2023-02-15T21:39:35.969Z,26.67
2023-02-15T21:42:21.867Z,24.75
2023-02-15T21:45:23.781Z,24.85
2023-02-15T21:47:50.620Z,26.60
2023-02-15T21:50:37.832Z,26.75
2023-02-15T21:53:06.902Z,29.75
2023-02-15T21:55:33.637Z,27.55
2023-02-15T21:58:01.021Z,29.05
2023-02-15T22:00:29.002Z,29.67
2023-02-15T22:02:58.477Z,32.70
2023-02-15T22:05:28.786Z,28.75
2023-02-15T22:07:57.409Z,28.92
2023-02-15T22:10:31.175Z,28.80
2023-02-15T22:13:00.691Z,30.23
2023-02-15T22:15:34.058Z,30.27
2023-02-15T22:18:00.669Z,32.15
2023-02-15T22:20:27.352Z,29.65
2023-02-15T22:22:54.258Z,30.13
2023-02-15T22:25:24.487Z,31.30
2023-02-15T22:27:54.195Z,32.10
2023-02-15T22:30:28.641Z,31.92
2023-02-15T22:32:56.771Z,32.03
2023-02-15T22:35:34.783Z,32.40
2023-02-15T22:38:01.652Z,32.97
2023-02-15T22:40:31.862Z,33.95
2023-02-15T22:43:02.670Z,32.13
2023-02-15T22:45:29.318Z,31.35
2023-02-15T22:47:58.669Z,32.45
2023-02-15T22:50:28.606Z,33.28
2023-02-15T22:52:55.657Z,31.92
2023-02-15T22:55:25.507Z,31.58
2023-02-15T22:57:55.170Z,33.05
2023-02-15T23:00:29.162Z,32.97
2023-02-15T23:02:56.014Z,32.72
2023-02-15T23:05:26.511Z,33.88
2023-02-15T23:07:53.317Z,34.75
2023-02-15T23:10:22.118Z,34.25
2023-02-15T23:13:08.306Z,34.00
2023-02-15T23:15:35.872Z,35.65
2023-02-15T23:18:13.078Z,34.38
2023-02-15T23:20:39.722Z,33.35
2023-02-15T23:23:10.807Z,34.83
2023-02-15T23:25:37.539Z,34.65
2023-02-15T23:28:05.194Z,35.08
2023-02-15T23:30:32.267Z,35.58
2023-02-15T23:32:58.978Z,33.95
2023-02-15T23:35:25.639Z,35.70
2023-02-15T23:37:52.260Z,35.50
2023-02-15T23:40:40.206Z,35.80
2023-02-15T23:43:11.937Z,34.45
2023-02-15T23:45:39.636Z,34.60
2023-02-15T23:48:38.964Z,35.03
2023-02-15T23:51:06.542Z,35.30
2023-02-15T23:53:33.884Z,34.85
2023-02-15T23:56:01.507Z,37.85
2023-02-15T23:58:35.316Z,37.78
